Time;durP1;ratioP1;P1;durP2;ratioP2;P2;SDS_P1;SDS_P2;PMS_P1;PMS_P2;Temp;Humidity;BMP_temperature;BMP_pressure;BME280_temperature;BME280_humidity;BME280_pressure;Samples;Min_cycle;Max_cycle;Signal;HPM_P1;HPM_P2
2022/12/08 00:01:52;;;;;;;18.80;14.30;;;;;;;0.77;73.86;99745.96;108048;1283;21972;-77
2022/12/08 00:04:25;;;;;;;21.20;13.30;;;;;;;0.77;73.91;99743.91;108082;1283;21933;-77
2022/12/08 00:09:43;;;;;;;17.40;12.10;;;;;;;0.72;73.79;99742.24;107697;1286;23064;-77
2022/12/08 00:12:15;;;;;;;17.00;11.00;;;;;;;0.71;73.90;99749.62;107352;1290;23648;-78
2022/12/08 00:14:46;;;;;;;18.00;11.40;;;;;;;0.69;73.80;99754.59;106726;1294;22021;-76
2022/12/08 00:17:16;;;;;;;19.20;11.90;;;;;;;0.69;73.95;99759.04;106774;1294;23094;-77
2022/12/08 00:19:54;;;;;;;15.60;11.70;;;;;;;0.67;73.99;99759.39;106561;1294;24315;-77
2022/12/08 00:22:27;;;;;;;15.00;10.30;;;;;;;0.67;74.03;99761.96;106595;1294;22066;-77
2022/12/08 00:25:06;;;;;;;18.80;12.40;;;;;;;0.66;74.04;99759.41;107048;1294;22023;-77
2022/12/08 00:27:38;;;;;;;24.00;12.40;;;;;;;0.67;74.07;99758.02;106833;1289;21966;-77
2022/12/08 00:30:14;;;;;;;15.30;11.40;;;;;;;0.69;74.12;99758.02;107308;1285;22301;-77
2022/12/08 00:32:49;;;;;;;14.10;10.00;;;;;;;0.69;74.03;99754.60;108019;1280;21950;-78
2022/12/08 00:35:27;;;;;;;15.10;9.90;;;;;;;0.68;73.86;99753.06;108052;1278;22733;-77
2022/12/08 00:38:01;;;;;;;17.30;11.00;;;;;;;0.68;73.93;99759.39;108097;1280;22189;-77
2022/12/08 00:40:36;;;;;;;15.30;10.60;;;;;;;0.66;73.93;99760.09;108019;1280;22161;-76
2022/12/08 00:43:05;;;;;;;18.90;12.50;;;;;;;0.66;73.87;99765.23;108112;1280;22023;-77
2022/12/08 00:45:39;;;;;;;14.50;11.10;;;;;;;0.66;73.94;99766.42;108152;1283;22293;-77
2022/12/08 00:48:09;;;;;;;20.60;11.10;;;;;;;0.65;73.90;99766.95;108200;1269;23037;-76
2022/12/08 00:50:41;;;;;;;15.30;11.20;;;;;;;0.65;73.91;99769.01;107929;1282;24336;-77
2022/12/08 00:53:12;;;;;;;21.20;11.80;;;;;;;0.65;73.92;99773.81;108241;1282;22192;-77
2022/12/08 00:55:48;;;;;;;16.60;12.00;;;;;;;0.66;73.97;99777.73;108104;1282;23715;-77
2022/12/08 00:58:23;;;;;;;16.30;10.90;;;;;;;0.66;73.95;99781.50;107964;1283;22168;-77
2022/12/08 01:01:00;;;;;;;17.20;12.30;;;;;;;0.65;73.90;99781.51;108576;1274;23621;-77
2022/12/08 01:03:37;;;;;;;17.00;12.80;;;;;;;0.65;73.83;99778.76;108495;1274;21927;-77
2022/12/08 01:06:10;;;;;;;17.90;12.20;;;;;;;0.61;73.73;99782.55;108419;1274;22351;-77
2022/12/08 01:08:42;;;;;;;18.90;11.80;;;;;;;0.58;73.67;99786.68;108249;1278;21953;-76
2022/12/08 01:11:16;;;;;;;15.60;10.90;;;;;;;0.57;73.75;99783.77;108361;1278;23698;-76
2022/12/08 01:13:56;;;;;;;16.50;11.60;;;;;;;0.56;73.79;99784.13;107832;1285;22276;-77
2022/12/08 01:16:40;;;;;;;15.70;11.30;;;;;;;0.53;73.79;99788.25;107617;1285;21954;-77
2022/12/08 01:19:14;;;;;;;15.80;11.50;;;;;;;0.50;73.72;99789.30;107747;1271;23049;-76
2022/12/08 01:21:48;;;;;;;15.60;10.80;;;;;;;0.48;73.77;99792.57;107440;1288;21971;-76
2022/12/08 01:24:20;;;;;;;13.60;10.50;;;;;;;0.45;73.85;99791.39;107491;1289;23648;-76
2022/12/08 01:26:50;;;;;;;13.50;11.40;;;;;;;0.44;73.85;99790.36;107494;1283;23801;-77
2022/12/08 01:29:26;;;;;;;;;;;;;;;0.43;73.90;99794.14;107547;1284;21943;-76
2022/12/08 01:31:55;;;;;;;16.00;10.70;;;;;;;0.35;74.03;99795.89;107461;1283;21943;-77
2022/12/08 01:34:28;;;;;;;13.30;9.80;;;;;;;0.34;74.13;99797.43;107808;1283;23051;-78
2022/12/08 01:36:59;;;;;;;16.80;11.70;;;;;;;0.35;74.24;99808.39;107653;1283;21954;-75
2022/12/08 01:39:29;;;;;;;18.60;11.00;;;;;;;0.39;74.23;99809.39;107479;1286;23708;-76
2022/12/08 01:42:01;;;;;;;16.10;11.10;;;;;;;0.40;74.15;99806.81;107764;1285;21955;-79
2022/12/08 01:44:33;;;;;;;14.40;10.70;;;;;;;0.40;74.16;99808.88;107984;1285;21952;-77
2022/12/08 01:47:04;;;;;;;16.20;10.70;;;;;;;0.42;74.22;99807.49;107507;1283;24304;-77
2022/12/08 01:49:44;;;;;;;12.90;11.00;;;;;;;0.41;74.14;99805.45;107370;1289;24312;-77
2022/12/08 01:52:38;;;;;;;19.30;10.30;;;;;;;0.42;74.13;99802.70;107536;1288;23622;-77
2022/12/08 01:55:36;;;;;;;13.00;10.30;;;;;;;0.40;74.05;99799.63;107596;1284;22113;-77
2022/12/08 01:58:22;;;;;;;17.20;12.10;;;;;;;0.37;74.01;99799.81;107517;1283;23702;-78
2022/12/08 02:01:03;;;;;;;17.40;12.00;;;;;;;0.36;74.00;99798.62;107785;1283;23701;-77
2022/12/08 02:03:41;;;;;;;17.20;11.40;;;;;;;0.33;73.97;99799.83;107844;1281;23061;-76
2022/12/08 02:06:15;;;;;;;17.20;12.90;;;;;;;0.29;73.89;99798.99;108082;1277;23717;-76
2022/12/08 02:08:48;;;;;;;17.70;12.10;;;;;;;0.23;73.91;99797.66;108535;1274;23088;-76
2022/12/08 02:11:18;;;;;;;19.20;13.40;;;;;;;0.22;73.97;99797.84;108119;1278;21930;-76
2022/12/08 02:13:57;;;;;;;18.70;14.40;;;;;;;0.20;74.01;99798.19;108232;1281;23088;-76
2022/12/08 02:17:09;;;;;;;24.70;13.90;;;;;;;0.18;74.04;99799.23;108076;1283;22201;-77
2022/12/08 02:20:22;;;;;;;19.50;14.70;;;;;;;0.16;74.21;99799.56;107928;1268;23071;-76
2022/12/08 02:23:32;;;;;;;24.30;16.50;;;;;;;0.16;74.27;99796.66;107749;1283;22803;-77
2022/12/08 02:26:41;;;;;;;21.30;15.80;;;;;;;0.14;74.32;99798.39;107959;1283;21983;-77
2022/12/08 02:29:27;;;;;;;18.40;16.10;;;;;;;0.10;74.24;99802.85;108028;1278;23624;-78
2022/12/08 02:32:49;;;;;;;20.00;16.00;;;;;;;0.06;74.21;99806.11;108322;1280;22098;-77
2022/12/08 02:36:10;;;;;;;20.20;14.40;;;;;;;0.04;74.37;99802.35;108050;1283;23092;-76
2022/12/08 02:38:52;;;;;;;18.20;14.00;;;;;;;0.04;74.58;99804.91;107432;1279;22086;-76
2022/12/08 02:41:59;;;;;;;18.20;13.80;;;;;;;0.07;74.55;99803.55;107566;1289;22521;-76
2022/12/08 02:44:49;;;;;;;18.10;13.70;;;;;;;0.07;74.62;99802.69;107584;1288;22932;-75
2022/12/08 02:47:24;;;;;;;21.30;14.80;;;;;;;0.08;74.66;99802.34;107081;1294;23804;-77
2022/12/08 02:49:57;;;;;;;;;;;;;;;0.11;74.57;99803.36;107006;1294;22723;-77
2022/12/08 02:52:28;;;;;;;20.60;13.80;;;;;;;0.04;74.65;99804.23;107010;1294;22004;-78
2022/12/08 02:55:33;;;;;;;20.00;14.20;;;;;;;0.03;74.66;99805.79;107004;1294;22896;-77
2022/12/08 02:58:34;;;;;;;18.30;12.70;;;;;;;0.04;74.76;99803.90;107027;1294;23332;-77
2022/12/08 03:01:09;;;;;;;20.40;12.90;;;;;;;0.04;74.69;99805.77;107053;1294;21957;-77
2022/12/08 03:04:03;;;;;;;19.90;14.20;;;;;;;0.07;74.83;99806.45;107019;1292;23074;-77
2022/12/08 03:06:51;;;;;;;19.60;13.80;;;;;;;0.06;74.74;99796.35;107304;1290;23791;-77
2022/12/08 03:10:08;;;;;;;27.20;16.20;;;;;;;0.09;74.76;99797.02;107138;1294;21952;-76
2022/12/08 03:12:54;;;;;;;17.00;15.00;;;;;;;0.12;74.86;99800.96;106998;1292;22911;-76
2022/12/08 03:15:23;;;;;;;18.20;15.90;;;;;;;0.14;74.82;99803.35;107305;1286;22748;-76
2022/12/08 03:18:01;;;;;;;23.20;15.80;;;;;;;0.17;74.84;99799.91;107684;1286;21968;-77
2022/12/08 03:20:33;;;;;;;21.00;16.30;;;;;;;0.19;74.91;99800.92;107677;1286;22728;-77
2022/12/08 03:23:08;;;;;;;20.80;15.20;;;;;;;0.21;74.86;99798.19;107630;1286;21949;-78
2022/12/08 03:25:59;;;;;;;18.40;15.80;;;;;;;0.24;74.89;99797.31;107669;1285;24296;-77
2022/12/08 03:28:32;;;;;;;22.40;16.30;;;;;;;0.25;74.93;99793.19;107668;1285;22936;-77
2022/12/08 03:31:13;;;;;;;21.20;16.70;;;;;;;0.28;75.09;99790.10;107804;1283;21983;-77
2022/12/08 03:33:56;;;;;;;23.90;20.70;;;;;;;0.30;75.00;99789.92;107838;1283;23066;-77
2022/12/08 03:36:28;;;;;;;30.00;22.50;;;;;;;0.32;74.99;99788.71;107715;1283;22859;-77
2022/12/08 03:39:01;;;;;;;27.60;23.70;;;;;;;0.35;75.06;99786.81;107878;1283;22009;-77
2022/12/08 03:41:34;;;;;;;29.60;25.80;;;;;;;0.35;74.93;99784.59;108049;1283;21954;-76
2022/12/08 03:44:11;;;;;;;31.10;25.60;;;;;;;0.33;74.81;99783.92;107872;1283;23784;-76
2022/12/08 03:46:43;;;;;;;30.60;25.60;;;;;;;0.30;74.69;99787.70;108107;1283;22395;-77
2022/12/08 03:49:18;;;;;;;30.70;25.90;;;;;;;0.28;74.66;99788.05;108300;1274;21960;-78
2022/12/08 03:51:50;;;;;;;29.10;25.70;;;;;;;0.27;74.75;99790.10;108122;1282;22712;-77
2022/12/08 03:54:23;;;;;;;28.50;24.60;;;;;;;0.28;74.76;99788.23;108113;1280;22007;-77
2022/12/08 03:56:54;;;;;;;28.40;23.40;;;;;;;0.26;74.64;99792.00;108124;1278;23055;-77
2022/12/08 03:59:23;;;;;;;28.60;23.90;;;;;;;0.24;74.57;99800.23;108316;1276;23579;-77
2022/12/08 04:01:55;;;;;;;33.30;24.20;;;;;;;0.21;74.59;99806.21;107904;1285;23623;-77
2022/12/08 04:04:26;;;;;;;28.50;24.80;;;;;;;0.18;74.61;99814.96;107938;1285;21919;-78
2022/12/08 04:07:01;;;;;;;34.70;25.80;;;;;;;0.17;74.74;99815.83;107860;1286;21953;-78
2022/12/08 04:09:32;;;;;;;27.50;24.50;;;;;;;0.15;74.83;99810.70;108054;1280;23589;-77
2022/12/08 04:12:10;;;;;;;26.90;23.70;;;;;;;0.13;75.00;99795.48;108069;1277;23730;-77
2022/12/08 04:14:39;;;;;;;35.60;28.40;;;;;;;0.17;75.08;99794.61;107700;1285;23810;-77
2022/12/08 04:17:12;;;;;;;38.70;29.90;;;;;;;0.19;75.13;99797.84;107419;1290;23037;-76
2022/12/08 04:19:44;;;;;;;33.40;26.00;;;;;;;0.19;75.06;99797.17;107431;1285;21942;-79
2022/12/08 04:22:14;;;;;;;32.90;25.40;;;;;;;0.17;74.97;99797.17;107890;1283;22188;-77
2022/12/08 04:24:43;;;;;;;33.70;29.90;;;;;;;0.14;74.95;99795.65;107767;1283;23076;-77
2022/12/08 04:27:28;;;;;;;68.90;54.10;;;;;;;0.14;75.09;99786.41;107981;1283;23213;-77
2022/12/08 04:30:10;;;;;;;44.90;34.60;;;;;;;0.15;75.28;99778.87;107710;1283;23063;-77
2022/12/08 04:32:43;;;;;;;30.90;26.40;;;;;;;0.17;75.34;99777.84;107997;1280;23154;-77
2022/12/08 04:35:17;;;;;;;28.70;25.50;;;;;;;0.20;75.41;99775.94;108248;1278;21949;-76
2022/12/08 04:37:50;;;;;;;37.70;30.40;;;;;;;0.21;75.32;99778.50;108357;1275;21952;-77
2022/12/08 04:40:20;;;;;;;31.10;27.60;;;;;;;0.22;75.35;99778.33;108446;1275;23598;-77
2022/12/08 04:42:51;;;;;;;35.20;27.20;;;;;;;0.23;75.37;99775.58;108460;1274;22009;-76
2022/12/08 04:45:27;;;;;;;36.50;27.60;;;;;;;0.25;75.39;99778.83;108549;1271;21961;-76
2022/12/08 04:48:03;;;;;;;30.10;22.20;;;;;;;0.26;75.44;99781.22;108618;1274;23802;-77
2022/12/08 04:50:43;;;;;;;32.80;24.30;;;;;;;0.27;75.43;99778.98;108585;1274;21938;-79
2022/12/08 04:53:16;;;;;;;31.10;24.80;;;;;;;0.28;75.42;99776.41;108144;1280;22438;-78
2022/12/08 04:55:48;;;;;;;30.60;24.20;;;;;;;0.29;75.56;99772.98;108031;1278;23633;-78
2022/12/08 04:58:20;;;;;;;26.50;20.40;;;;;;;0.30;75.49;99771.27;108101;1279;23019;-77
2022/12/08 05:00:52;;;;;;;25.30;20.10;;;;;;;0.30;75.51;99767.33;108098;1278;22007;-76
2022/12/08 05:03:24;;;;;;;27.20;22.50;;;;;;;0.31;75.59;99768.69;108097;1279;21937;-76
2022/12/08 05:06:03;;;;;;;32.10;23.50;;;;;;;0.30;75.48;99769.22;107972;1280;21952;-76
2022/12/08 05:08:33;;;;;;;47.70;31.00;;;;;;;0.29;75.47;99773.67;108108;1280;21942;-76
2022/12/08 05:11:09;;;;;;;46.30;31.50;;;;;;;0.28;75.48;99775.91;108270;1274;23055;-76
2022/12/08 05:13:41;;;;;;;62.20;36.80;;;;;;;0.25;75.47;99779.67;108685;1274;21936;-76
2022/12/08 05:16:16;;;;;;;54.20;36.20;;;;;;;0.21;75.43;99782.09;108557;1274;23702;-77
2022/12/08 05:18:47;;;;;;;50.70;35.60;;;;;;;0.19;75.52;99780.73;108581;1274;21928;-76
2022/12/08 05:21:29;;;;;;;48.80;33.00;;;;;;;0.17;75.49;99784.34;108542;1274;23260;-75
2022/12/08 05:23:58;;;;;;;42.80;32.20;;;;;;;0.15;75.56;99783.48;108528;1274;22011;-76
2022/12/08 05:26:27;;;;;;;48.80;32.30;;;;;;;0.14;75.69;99779.21;108458;1273;23711;-77
2022/12/08 05:28:56;;;;;;;39.90;29.60;;;;;;;0.16;75.79;99776.30;108524;1274;22704;-77
2022/12/08 05:31:25;;;;;;;32.60;26.70;;;;;;;0.17;75.77;99778.02;108610;1275;21936;-77
2022/12/08 05:33:55;;;;;;;37.90;27.30;;;;;;;0.17;75.75;99778.70;108650;1261;23046;-77
2022/12/08 05:36:33;;;;;;;29.80;25.50;;;;;;;0.16;75.88;99774.94;108632;1274;22086;-76
2022/12/08 05:39:05;;;;;;;30.20;25.40;;;;;;;0.17;75.99;99780.06;108576;1273;21927;-76
2022/12/08 05:41:38;;;;;;;37.60;29.70;;;;;;;0.18;75.98;99778.17;108547;1273;21918;-76
2022/12/08 05:44:08;;;;;;;35.30;27.40;;;;;;;0.18;75.99;99777.14;108554;1275;23580;-76
2022/12/08 05:46:37;;;;;;;46.80;41.70;;;;;;;0.20;76.05;99775.25;108599;1273;22734;-76
2022/12/08 05:49:11;;;;;;;52.90;47.30;;;;;;;0.19;76.02;99770.30;108276;1279;21945;-76
2022/12/08 05:51:44;;;;;;;50.60;45.30;;;;;;;0.17;76.03;99777.65;108090;1282;22764;-77
2022/12/08 05:54:16;;;;;;;43.10;38.50;;;;;;;0.15;76.04;99777.33;107990;1282;22015;-77
2022/12/08 05:56:45;;;;;;;36.80;31.50;;;;;;;0.12;76.02;99769.98;107781;1283;21973;-78
2022/12/08 05:59:15;;;;;;;26.80;22.30;;;;;;;0.10;76.05;99769.49;107718;1289;21947;-78
2022/12/08 06:01:54;;;;;;;37.00;30.20;;;;;;;0.05;75.99;99761.63;107692;1287;23708;-77
2022/12/08 06:04:24;;;;;;;39.30;34.40;;;;;;;0.00;75.94;99770.03;107750;1288;21951;-76
2022/12/08 06:06:57;;;;;;;43.30;38.60;;;;;;;-0.05;75.94;99774.33;107784;1283;23616;-77
2022/12/08 06:09:30;;;;;;;42.00;36.20;;;;;;;-0.07;76.04;99777.77;107834;1280;21932;-76
2022/12/08 06:12:01;;;;;;;85.90;60.30;;;;;;;-0.07;76.18;99781.36;108234;1280;21936;-78
2022/12/08 06:14:38;;;;;;;79.50;62.10;;;;;;;-0.07;76.16;99783.92;108267;1272;21977;-78
2022/12/08 06:17:07;;;;;;;75.90;58.80;;;;;;;-0.10;76.05;99789.58;108645;1272;23797;-76
2022/12/08 06:19:38;;;;;;;77.60;56.00;;;;;;;-0.12;76.02;99793.17;108813;1272;21927;-78
2022/12/08 06:22:10;;;;;;;76.80;56.90;;;;;;;-0.14;76.08;99796.61;108792;1274;21929;-78
2022/12/08 06:24:39;;;;;;;64.60;50.20;;;;;;;-0.14;76.09;99798.83;108550;1272;21936;-77
2022/12/08 06:27:08;;;;;;;74.50;54.60;;;;;;;-0.14;76.20;99803.11;108610;1272;24282;-77
2022/12/08 06:29:37;;;;;;;83.10;60.30;;;;;;;-0.11;76.19;99803.09;108524;1274;21990;-79
2022/12/08 06:32:07;;;;;;;83.40;59.40;;;;;;;-0.08;76.31;99800.16;108577;1272;23580;-79
2022/12/08 06:34:39;;;;;;;62.30;48.70;;;;;;;-0.04;76.38;99797.42;108823;1274;23747;-79
2022/12/08 06:37:17;;;;;;;65.60;48.00;;;;;;;-0.03;76.38;99794.85;108606;1274;24277;-79
2022/12/08 06:39:50;;;;;;;61.60;46.00;;;;;;;-0.03;76.37;99794.17;108911;1272;21944;-79
2022/12/08 06:45:16;;;;;;;58.30;44.50;;;;;;;-0.06;76.42;99801.20;108540;1274;24322;-78
2022/12/08 06:47:46;;;;;;;60.10;46.60;;;;;;;-0.08;76.29;99798.47;108571;1274;21946;-78
2022/12/08 06:50:15;;;;;;;78.50;54.00;;;;;;;-0.09;76.37;99796.58;108675;1274;21938;-77
2022/12/08 06:52:45;;;;;;;83.70;54.60;;;;;;;-0.10;76.21;99798.47;108271;1275;21949;-77
2022/12/08 06:55:31;;;;;;;74.70;52.60;;;;;;;-0.15;76.21;99798.82;108289;1280;23075;-78
2022/12/08 06:58:21;;;;;;;145.40;81.30;;;;;;;-0.21;76.38;99799.36;108365;1279;21937;-76
2022/12/08 07:00:54;;;;;;;130.20;85.20;;;;;;;-0.25;76.38;99800.21;108183;1282;23678;-77
2022/12/08 07:03:23;;;;;;;134.40;95.60;;;;;;;-0.27;76.44;99798.85;108183;1280;23871;-79
2022/12/08 07:05:58;;;;;;;184.50;122.30;;;;;;;-0.30;76.48;99799.04;108191;1282;21942;-79
2022/12/08 07:08:34;;;;;;;107.60;74.50;;;;;;;-0.32;76.57;99800.75;107825;1283;22708;-78
2022/12/08 07:11:11;;;;;;;95.00;73.10;;;;;;;-0.32;76.76;99801.77;108222;1278;23587;-78
2022/12/08 07:13:45;;;;;;;;;;;;;;;-0.30;76.90;99805.20;108011;1283;22004;-76
2022/12/08 07:16:15;;;;;;;82.40;71.40;;;;;;;-0.30;77.17;99804.17;107563;1286;23675;-78
2022/12/08 07:18:44;;;;;;;90.10;73.10;;;;;;;-0.24;77.28;99805.52;107016;1291;21967;-78
2022/12/08 07:21:14;;;;;;;91.00;76.50;;;;;;;-0.16;77.35;99806.88;107368;1289;21934;-77
2022/12/08 07:23:50;;;;;;;87.20;76.30;;;;;;;-0.08;77.33;99806.34;107470;1291;21996;-78
2022/12/08 07:26:44;;;;;;;95.80;85.60;;;;;;;-0.00;77.47;99804.94;106874;1294;23183;-79
2022/12/08 07:29:25;;;;;;;82.00;73.20;;;;;;;0.03;77.46;99798.08;107228;1297;21963;-78
2022/12/08 07:31:55;;;;;;;84.20;71.30;;;;;;;0.06;77.25;99801.84;107044;1292;21989;-79
2022/12/08 07:34:24;;;;;;;83.60;68.70;;;;;;;0.07;77.28;99795.51;107544;1286;24362;-77
2022/12/08 07:36:53;;;;;;;88.40;73.30;;;;;;;0.08;77.44;99791.73;108054;1280;21914;-78
2022/12/08 07:39:22;;;;;;;75.70;58.40;;;;;;;0.14;77.49;99791.38;108461;1280;21927;-78
2022/12/08 07:41:51;;;;;;;79.00;60.70;;;;;;;0.17;77.47;99786.91;108218;1279;22413;-78
2022/12/08 07:44:20;;;;;;;82.10;58.70;;;;;;;0.20;77.60;99787.06;108034;1283;21958;-78
2022/12/08 07:46:49;;;;;;;84.40;59.30;;;;;;;0.23;77.66;99776.27;108077;1283;22434;-79
2022/12/08 07:49:18;;;;;;;89.70;64.60;;;;;;;0.28;77.75;99771.27;107934;1283;21953;-81
2022/12/08 07:51:47;;;;;;;73.90;55.70;;;;;;;0.34;77.77;99772.10;108313;1283;24618;-82
2022/12/08 07:54:21;;;;;;;65.20;40.90;;;;;;;0.41;77.74;99771.05;108158;1283;23017;-80
2022/12/08 07:57:11;;;;;;;61.00;40.70;;;;;;;0.46;77.81;99769.14;108218;1280;21944;-77
2022/12/08 07:59:41;;;;;;;63.30;42.30;;;;;;;0.52;77.83;99766.19;108138;1279;21937;-77
2022/12/08 08:02:20;;;;;;;53.80;37.30;;;;;;;0.61;77.97;99767.15;108230;1274;21926;-76
2022/12/08 08:04:54;;;;;;;60.20;39.50;;;;;;;0.75;78.09;99766.20;108557;1274;23103;-78
2022/12/08 08:07:30;;;;;;;52.20;36.20;;;;;;;0.88;78.06;99764.22;108773;1274;21920;-84
2022/12/08 08:09:59;;;;;;;;;;;;;;;0.99;77.97;99766.02;108886;1274;22401;-83
2022/12/08 08:12:43;;;;;;;51.50;37.40;;;;;;;1.02;77.98;99771.64;108905;1274;22770;-84
2022/12/08 08:15:20;;;;;;;66.20;45.40;;;;;;;1.11;77.98;99774.65;108728;1273;21948;-84
2022/12/08 08:17:52;;;;;;;48.60;37.40;;;;;;;1.20;77.78;99774.92;108822;1274;21925;-83
2022/12/08 08:20:24;;;;;;;44.10;35.30;;;;;;;1.30;77.82;99775.69;108818;1274;23014;-83
2022/12/08 08:22:57;;;;;;;49.40;38.10;;;;;;;1.41;77.76;99772.68;108858;1274;23054;-83
2022/12/08 08:25:26;;;;;;;46.80;39.60;;;;;;;1.52;77.64;99772.38;108520;1278;21949;-83
2022/12/08 08:28:06;;;;;;;47.00;39.60;;;;;;;1.58;77.40;99771.98;108516;1280;21992;-82
2022/12/08 08:30:47;;;;;;;47.90;40.60;;;;;;;1.65;77.50;99770.02;108576;1279;21927;-83
2022/12/08 08:33:26;;;;;;;42.90;37.00;;;;;;;1.74;77.27;99771.31;108445;1278;21982;-82
2022/12/08 08:36:03;;;;;;;45.90;38.70;;;;;;;1.79;77.10;99770.57;107518;1280;1208270;-83
2022/12/08 08:38:53;;;;;;;;;;;;;;;;;;;;;
2022/12/08 08:41:41;;;;;;;84.00;59.20;;;;;;;1.85;76.90;99775.31;108555;1279;21944;-83
2022/12/08 08:44:53;;;;;;;51.40;40.50;;;;;;;1.85;76.85;99778.90;108777;1273;21928;-82
2022/12/08 08:47:33;;;;;;;107.80;89.90;;;;;;;1.88;76.77;99780.42;108788;1274;21930;-82
2022/12/08 08:50:09;;;;;;;73.30;52.70;;;;;;;1.95;76.99;99778.96;108310;1280;21943;-83
2022/12/08 08:53:04;;;;;;;54.80;40.70;;;;;;;2.04;76.98;99780.05;108457;1280;21973;-82
2022/12/08 08:56:05;;;;;;;;;;;;;;;;;;;;;
2022/12/08 08:58:54;;;;;;;49.00;38.00;;;;;;;2.23;76.97;99782.40;108622;1280;23057;-84
2022/12/08 09:01:44;;;;;;;49.40;36.40;;;;;;;2.27;76.56;99777.02;108400;1280;24367;-82
2022/12/08 09:04:24;;;;;;;56.40;36.40;;;;;;;2.26;76.30;99774.98;108569;1280;21997;-82
2022/12/08 09:07:00;;;;;;;58.40;41.30;;;;;;;2.32;76.42;99772.67;108709;1280;21944;-84
2022/12/08 09:09:56;;;;;;;;;;;;;;;;;;;;;
2022/12/08 09:12:46;;;;;;;51.00;38.80;;;;;;;2.51;76.38;99772.39;108683;1274;23084;-83
2022/12/08 09:15:19;;;;;;;40.90;33.40;;;;;;;2.67;76.64;99774.23;109062;1274;23758;-82
2022/12/08 09:17:51;;;;;;;41.20;36.50;;;;;;;2.76;76.01;99774.44;108798;1274;21933;-86
2022/12/08 09:20:21;;;;;;;46.90;36.80;;;;;;;2.85;76.14;99768.45;108872;1273;21933;-79
2022/12/08 09:22:53;;;;;;;61.20;52.20;;;;;;;2.98;76.05;99768.60;108608;1272;23050;-79
2022/12/08 09:25:23;;;;;;;41.50;35.40;;;;;;;3.10;75.79;99763.60;108713;1275;21944;-79
2022/12/08 09:27:57;;;;;;;42.30;36.90;;;;;;;3.17;75.29;99759.70;108540;1275;23769;-79
2022/12/08 09:30:26;;;;;;;50.60;43.10;;;;;;;3.24;75.18;99757.50;108720;1274;23768;-79
2022/12/08 09:33:00;;;;;;;53.40;42.10;;;;;;;3.33;74.77;99754.43;108740;1275;22624;-78
2022/12/08 09:35:29;;;;;;;43.20;36.70;;;;;;;3.31;74.11;99750.17;108579;1275;21983;-79
2022/12/08 09:38:00;;;;;;;52.80;38.10;;;;;;;3.31;74.40;99745.34;108515;1275;21930;-78
2022/12/08 09:40:45;;;;;;;43.00;34.60;;;;;;;3.32;74.15;99741.03;108569;1275;21990;-79
2022/12/08 09:44:27;;;;;;;42.60;37.20;;;;;;;3.33;74.01;99730.70;108762;1273;23010;-79
2022/12/08 09:46:59;;;;;;;46.40;36.90;;;;;;;3.30;74.03;99722.33;107624;1287;22480;-77
2022/12/08 09:49:40;;;;;;;38.90;32.30;;;;;;;3.34;73.75;99720.37;107395;1289;21971;-78
2022/12/08 09:52:31;;;;;;;;;;;;;;;3.36;73.53;99722.04;107440;1289;23832;-76
2022/12/08 09:55:19;;;;;;;39.70;35.00;;;;;;;3.30;73.72;99722.85;107378;1289;23866;-77
2022/12/08 09:58:10;;;;;;;38.80;33.80;;;;;;;3.41;74.03;99721.95;107560;1283;22006;-77
2022/12/08 10:00:39;;;;;;;57.50;35.30;;;;;;;3.58;73.88;99723.54;107441;1289;23602;-77
2022/12/08 10:03:11;;;;;;;37.40;32.70;;;;;;;3.56;73.28;99727.00;107425;1289;21967;-76
2022/12/08 10:06:13;;;;;;;38.40;33.10;;;;;;;3.50;73.31;99722.82;106968;1294;21953;-77
2022/12/08 10:09:05;;;;;;;36.50;31.50;;;;;;;3.46;73.12;99723.74;106909;1295;23735;-76
2022/12/08 10:11:54;;;;;;;36.90;28.10;;;;;;;3.43;72.85;99723.64;107153;1291;21935;-76
2022/12/08 10:14:43;;;;;;;42.60;33.90;;;;;;;3.39;72.95;99721.13;106878;1294;23717;-76
2022/12/08 10:17:29;;;;;;;37.50;33.50;;;;;;;3.49;73.38;99716.47;107119;1294;21967;-76
2022/12/08 10:20:23;;;;;;;46.20;37.20;;;;;;;3.68;73.67;99715.59;107109;1294;21958;-77
2022/12/08 10:23:13;;;;;;;37.90;33.80;;;;;;;3.90;73.68;99711.35;107202;1285;24418;-77
2022/12/08 10:25:49;;;;;;;34.00;29.70;;;;;;;4.07;73.43;99707.55;108075;1276;22454;-77
2022/12/08 10:28:18;;;;;;;44.60;39.80;;;;;;;4.20;73.01;99710.38;108021;1283;23621;-77
2022/12/08 10:30:47;;;;;;;39.20;35.10;;;;;;;4.28;72.26;99714.85;108098;1283;24319;-76
2022/12/08 10:33:19;;;;;;;39.60;32.90;;;;;;;4.26;71.65;99715.08;108390;1282;22421;-76
2022/12/08 10:35:57;;;;;;;38.30;33.40;;;;;;;4.18;71.27;99717.99;108097;1282;21946;-76
2022/12/08 10:38:31;;;;;;;35.20;30.80;;;;;;;4.07;71.08;99711.52;108202;1278;21956;-76
2022/12/08 10:41:10;;;;;;;38.20;32.50;;;;;;;3.97;71.06;99708.66;108208;1280;21937;-78
2022/12/08 10:43:51;;;;;;;37.50;33.60;;;;;;;3.97;71.26;99708.65;108279;1274;22189;-77
2022/12/08 10:46:27;;;;;;;41.20;34.10;;;;;;;3.99;71.48;99708.43;108535;1274;23616;-77
2022/12/08 10:49:02;;;;;;;47.80;38.80;;;;;;;4.04;71.45;99706.94;108577;1274;21943;-77
2022/12/08 10:51:34;;;;;;;50.70;42.50;;;;;;;4.04;71.21;99703.48;108574;1270;22688;-77
2022/12/08 10:54:07;;;;;;;41.50;36.50;;;;;;;4.07;71.34;99696.36;108643;1272;21974;-80
2022/12/08 10:56:36;;;;;;;44.40;37.20;;;;;;;4.12;71.36;99689.55;108220;1280;22044;-78
2022/12/08 10:59:18;;;;;;;50.20;44.50;;;;;;;4.20;71.49;99687.48;108205;1279;22882;-77
2022/12/08 11:01:53;;;;;;;46.40;40.50;;;;;;;4.27;71.43;99685.95;108199;1280;22182;-80
2022/12/08 11:04:36;;;;;;;43.00;35.40;;;;;;;4.37;71.32;99685.90;108199;1280;21942;-79
2022/12/08 11:07:08;;;;;;;45.20;39.40;;;;;;;4.44;71.25;99680.90;108342;1280;22427;-80
2022/12/08 11:09:51;;;;;;;40.90;35.80;;;;;;;4.51;70.99;99681.93;108305;1280;21937;-79
2022/12/08 11:12:24;;;;;;;35.70;31.80;;;;;;;4.51;70.51;99682.45;108266;1280;23095;-79
2022/12/08 11:15:02;;;;;;;40.70;36.30;;;;;;;4.51;70.61;99682.13;108777;1274;22981;-79
2022/12/08 11:17:38;;;;;;;38.00;32.60;;;;;;;4.52;70.44;99678.30;109032;1274;23021;-79
2022/12/08 11:20:07;;;;;;;36.70;32.80;;;;;;;4.54;70.46;99676.18;108909;1275;22694;-80
2022/12/08 11:22:53;;;;;;;52.90;47.10;;;;;;;4.66;70.86;99676.24;108960;1273;21954;-79
2022/12/08 11:25:25;;;;;;;37.70;33.70;;;;;;;4.84;71.10;99676.30;108660;1274;22005;-78
2022/12/08 11:28:00;;;;;;;27.80;24.80;;;;;;;4.98;70.68;99676.80;108431;1279;23609;-77
2022/12/08 11:30:39;;;;;;;26.70;23.60;;;;;;;5.04;70.10;99672.88;108356;1276;23008;-77
2022/12/08 11:33:22;;;;;;;24.30;21.70;;;;;;;5.08;69.92;99672.25;108162;1269;23676;-77
2022/12/08 11:36:01;;;;;;;25.10;22.50;;;;;;;5.11;69.73;99673.89;108174;1280;23042;-78
2022/12/08 11:38:34;;;;;;;30.80;25.40;;;;;;;5.18;69.66;99673.03;108313;1280;22763;-77
2022/12/08 11:41:16;;;;;;;27.20;23.70;;;;;;;5.18;68.79;99670.27;108405;1279;21952;-77
2022/12/08 11:44:03;;;;;;;29.00;25.90;;;;;;;5.14;68.84;99664.86;107926;1286;21943;-78
2022/12/08 11:46:55;;;;;;;26.60;23.90;;;;;;;5.18;69.07;99663.72;108159;1279;21949;-77
2022/12/08 11:49:39;;;;;;;26.90;24.20;;;;;;;5.20;68.93;99662.43;108321;1280;21960;-78
2022/12/08 11:52:23;;;;;;;32.10;27.40;;;;;;;5.24;68.82;99665.10;108055;1282;23404;-76
2022/12/08 11:55:38;;;;;;;30.30;24.30;;;;;;;5.29;68.56;99665.33;107946;1286;22014;-77
2022/12/08 11:58:20;;;;;;;37.90;29.10;;;;;;;5.34;68.70;99663.28;108047;1281;21991;-78
2022/12/08 12:00:50;;;;;;;35.50;30.40;;;;;;;5.43;68.47;99662.35;107848;1284;21991;-77
2022/12/08 12:03:31;;;;;;;30.20;26.00;;;;;;;5.48;68.08;99659.61;108439;1279;22696;-77
2022/12/08 12:06:37;;;;;;;40.50;36.30;;;;;;;5.46;67.52;99655.87;108338;1280;21935;-76
2022/12/08 12:10:03;;;;;;;25.50;20.90;;;;;;;5.36;67.42;99652.52;108328;1279;21972;-79
2022/12/08 12:13:06;;;;;;;27.40;21.50;;;;;;;5.31;67.42;99650.23;109431;1273;21954;-79
2022/12/08 12:16:18;;;;;;;26.10;22.50;;;;;;;5.28;67.15;99647.75;108865;1274;23124;-78
2022/12/08 12:18:55;;;;;;;32.00;26.60;;;;;;;5.23;67.06;99643.74;108274;1281;21967;-78